Lake Ann, Michigan
Current Conditions -  °F | °C
As of 7:19 PM on Friday 28 Nov 2014 (Local Time) from KTVC Reporting Station
Light Snow Light Snow  
Wind Chill: -4°   Ceiling: 4800
Heat Index: -4°   Visibility: 5mi
Dew Point: -7°   Wind: 3mph
Humidity: 78%   Direction: NA
Pressure: 30.03"   Gusts: NA
Location:  44.72°N, 85.84°W
Report Text: KTVC 290019Z VRB03KT 5SM -SN SCT024 OVC048 M04/M07 A3003 RMK AO2 P0000 T10391072
Loading
Personal Weather Stations






























Interactive Weather Map New forecast layout! Learn more

10-Day Weather Forecast

Advertisements
Track Severe Weather on mobile